createdAt,value
2022-10-04T00:01:55.142Z,13.02
2022-10-04T00:07:11.998Z,11.82
2022-10-04T00:12:28.051Z,11.93
2022-10-04T00:17:31.949Z,12.63
2022-10-04T00:22:33.582Z,12.35
2022-10-04T00:27:36.908Z,12.88
2022-10-04T00:32:38.402Z,13.98
2022-10-04T00:38:16.995Z,13.30
2022-10-04T00:43:29.244Z,13.63
2022-10-04T00:48:34.117Z,13.45
2022-10-04T00:54:26.854Z,13.35
2022-10-04T00:59:31.381Z,12.60
2022-10-04T01:04:53.137Z,13.43
2022-10-04T01:09:59.975Z,11.00
2022-10-04T01:20:31.700Z,11.93
2022-10-04T01:25:46.761Z,12.52
2022-10-04T01:30:48.804Z,13.30
2022-10-04T01:35:50.664Z,12.93
2022-10-04T01:40:57.480Z,12.80
2022-10-04T01:51:17.048Z,12.52
2022-10-04T01:56:24.340Z,11.38
2022-10-04T02:01:34.387Z,11.95
2022-10-04T02:06:39.739Z,13.70
2022-10-04T02:11:44.545Z,11.80
2022-10-04T02:16:49.394Z,12.40
2022-10-04T02:21:52.212Z,11.63
2022-10-04T02:26:53.835Z,14.02
2022-10-04T02:31:55.433Z,13.73
2022-10-04T02:36:57.351Z,14.85
2022-10-04T02:42:35.202Z,13.45
2022-10-04T02:47:48.239Z,13.23
2022-10-04T02:52:55.854Z,11.50
2022-10-04T02:57:58.599Z,12.00
2022-10-04T03:03:09.304Z,11.93
2022-10-04T03:08:11.284Z,13.07
2022-10-04T03:13:14.552Z,12.27
2022-10-04T03:18:17.963Z,12.43
2022-10-04T03:23:21.247Z,13.32
2022-10-04T03:28:22.952Z,14.20
2022-10-04T03:33:29.454Z,13.07
2022-10-04T03:38:35.030Z,12.88
2022-10-04T03:43:42.583Z,13.48
2022-10-04T03:48:48.087Z,12.50
2022-10-04T03:53:53.084Z,13.20
2022-10-04T03:58:55.867Z,13.38
2022-10-04T04:04:56.117Z,14.15
2022-10-04T04:10:23.546Z,13.85
2022-10-04T04:20:38.241Z,12.98
2022-10-04T04:25:46.641Z,13.23
2022-10-04T04:30:53.178Z,14.57
2022-10-04T04:36:02.516Z,12.25
2022-10-04T04:41:10.990Z,12.63
2022-10-04T04:46:26.993Z,12.73
2022-10-04T04:51:31.770Z,13.32
2022-10-04T04:56:34.701Z,12.98
2022-10-04T05:01:43.377Z,13.88
2022-10-04T05:06:47.363Z,13.80
2022-10-04T05:11:49.991Z,13.38
2022-10-04T05:16:54.234Z,13.07
2022-10-04T05:21:59.347Z,13.15
2022-10-04T05:27:23.159Z,12.52
2022-10-04T05:32:55.698Z,13.15
2022-10-04T05:38:24.371Z,13.18
2022-10-04T05:43:37.541Z,11.90
2022-10-04T05:48:41.594Z,13.63
2022-10-04T05:53:43.221Z,12.07
2022-10-04T05:59:26.357Z,14.05
2022-10-04T06:05:02.455Z,12.65
2022-10-04T06:10:24.984Z,13.73
2022-10-04T06:15:38.759Z,12.52
2022-10-04T06:20:51.686Z,11.43
2022-10-04T06:25:58.700Z,11.60
2022-10-04T06:31:22.030Z,12.45
2022-10-04T06:36:45.521Z,12.25
2022-10-04T06:41:47.144Z,10.95
2022-10-04T06:47:13.568Z,12.33
2022-10-04T06:52:29.325Z,11.52
2022-10-04T06:58:05.043Z,9.63
2022-10-04T07:03:21.191Z,8.05
2022-10-04T07:08:51.787Z,6.97
2022-10-04T07:14:03.438Z,5.88
2022-10-04T07:19:26.812Z,6.38
2022-10-04T07:24:38.130Z,5.97
2022-10-04T07:29:43.045Z,4.85
2022-10-04T07:34:44.472Z,5.25
2022-10-04T07:39:51.587Z,5.65
2022-10-04T07:45:19.011Z,5.10
2022-10-04T07:50:36.597Z,5.63
2022-10-04T07:55:51.479Z,5.78
2022-10-04T08:01:01.500Z,4.00
2022-10-04T08:06:12.694Z,5.28
2022-10-04T08:11:57.345Z,4.97
2022-10-04T08:17:15.465Z,4.53
2022-10-04T08:22:29.662Z,4.70
2022-10-04T08:27:43.225Z,5.38
2022-10-04T08:33:27.617Z,4.28
2022-10-04T08:38:34.984Z,4.55
2022-10-04T08:43:56.282Z,4.80
2022-10-04T08:49:55.320Z,4.32
2022-10-04T08:55:29.208Z,3.85
2022-10-04T09:00:52.396Z,4.88
2022-10-04T09:05:59.309Z,3.47
2022-10-04T09:11:22.085Z,3.60
2022-10-04T09:16:46.474Z,3.40
2022-10-04T09:21:56.821Z,3.78
2022-10-04T09:27:04.430Z,3.60
2022-10-04T09:32:27.472Z,3.85
2022-10-04T09:38:00.147Z,3.45
2022-10-04T09:43:21.138Z,3.28
2022-10-04T09:48:32.672Z,3.05
2022-10-04T09:53:42.224Z,2.90
2022-10-04T09:59:09.486Z,3.53
2022-10-04T10:04:38.084Z,2.65
2022-10-04T10:10:06.328Z,2.90
2022-10-04T10:15:22.495Z,2.38
2022-10-04T10:26:03.979Z,2.38
2022-10-04T10:31:32.400Z,3.08
2022-10-04T10:37:09.348Z,2.60
2022-10-04T10:42:32.879Z,2.33
2022-10-04T10:47:52.369Z,2.80
2022-10-04T10:53:11.839Z,2.65
2022-10-04T10:58:47.561Z,2.45
2022-10-04T11:04:13.917Z,2.28
2022-10-04T11:09:51.060Z,2.78
2022-10-04T11:15:05.733Z,2.00
2022-10-04T11:20:32.923Z,2.25
2022-10-04T11:25:57.430Z,1.88
2022-10-04T11:30:58.977Z,1.85
2022-10-04T11:36:26.678Z,1.65
2022-10-04T11:42:01.143Z,1.70
2022-10-04T11:47:24.402Z,1.83
2022-10-04T11:52:28.558Z,1.50
2022-10-04T11:57:47.990Z,1.63
2022-10-04T12:03:04.589Z,2.42
2022-10-04T12:08:30.800Z,1.70
2022-10-04T12:13:57.475Z,1.75
2022-10-04T12:19:29.724Z,1.98
2022-10-04T12:25:02.121Z,2.08
2022-10-04T12:30:21.997Z,2.58
2022-10-04T12:35:30.711Z,1.60
2022-10-04T12:40:42.244Z,1.80
2022-10-04T12:46:21.879Z,1.77
2022-10-04T12:51:32.476Z,2.13
2022-10-04T12:56:51.011Z,2.40
2022-10-04T13:02:24.747Z,2.38
2022-10-04T13:07:35.338Z,1.88
2022-10-04T13:12:55.045Z,1.80
2022-10-04T13:18:22.390Z,1.92
2022-10-04T13:23:35.865Z,1.75
2022-10-04T13:28:50.435Z,1.70
2022-10-04T13:34:12.151Z,2.03
2022-10-04T13:39:25.522Z,2.15
2022-10-04T13:44:59.080Z,1.80
2022-10-04T13:50:15.849Z,2.15
2022-10-04T13:55:40.303Z,1.95
2022-10-04T14:01:21.926Z,2.15
2022-10-04T14:06:38.466Z,2.25
2022-10-04T14:12:05.973Z,2.05
2022-10-04T14:17:49.203Z,2.38
2022-10-04T14:23:08.807Z,2.40
2022-10-04T14:28:35.177Z,2.28
2022-10-04T14:33:47.047Z,2.28
2022-10-04T14:39:13.162Z,2.10
2022-10-04T14:44:26.157Z,1.70
2022-10-04T14:49:40.446Z,2.33
2022-10-04T14:55:08.024Z,1.98
2022-10-04T15:00:47.964Z,2.20
2022-10-04T15:05:52.406Z,2.20
2022-10-04T15:11:09.556Z,2.00
2022-10-04T15:16:36.240Z,2.00
2022-10-04T15:21:52.590Z,2.15
2022-10-04T15:27:06.084Z,2.45
2022-10-04T15:32:35.932Z,1.80
2022-10-04T15:37:49.377Z,2.15
2022-10-04T15:43:02.881Z,2.28
2022-10-04T15:48:07.345Z,2.03
2022-10-04T15:53:46.113Z,2.17
2022-10-04T15:59:06.135Z,2.17
2022-10-04T16:04:16.546Z,2.55
2022-10-04T16:09:29.849Z,2.90
2022-10-04T16:14:43.287Z,2.05
2022-10-04T16:20:25.859Z,2.70
2022-10-04T16:25:38.310Z,2.47
2022-10-04T16:30:59.488Z,2.75
2022-10-04T16:36:08.444Z,2.75
2022-10-04T16:41:15.892Z,4.53
2022-10-04T16:46:37.275Z,3.97
2022-10-04T16:51:38.861Z,3.95
2022-10-04T16:56:52.608Z,5.28
2022-10-04T17:02:36.728Z,19.20
2022-10-04T17:08:27.560Z,6.15
2022-10-04T17:13:47.610Z,3.75
2022-10-04T17:19:26.425Z,4.60
2022-10-04T17:24:33.660Z,3.20
2022-10-04T17:29:50.554Z,2.42
2022-10-04T17:40:27.156Z,2.92
2022-10-04T17:45:46.835Z,2.92
2022-10-04T17:51:09.770Z,4.13
2022-10-04T17:56:13.548Z,5.90
2022-10-04T18:01:44.717Z,5.05
2022-10-04T18:06:53.017Z,3.35
2022-10-04T18:11:59.609Z,3.00
2022-10-04T18:17:06.313Z,2.67
2022-10-04T18:27:25.246Z,2.25
2022-10-04T18:32:26.788Z,2.00
2022-10-04T18:37:34.859Z,2.30
2022-10-04T18:42:40.881Z,2.42
2022-10-04T18:47:42.452Z,2.47
2022-10-04T18:53:13.314Z,2.47
2022-10-04T18:58:29.652Z,2.63
2022-10-04T19:03:40.821Z,2.77
2022-10-04T19:09:06.833Z,2.85
2022-10-04T19:14:17.193Z,2.80
2022-10-04T19:19:42.190Z,3.33
2022-10-04T19:25:10.018Z,3.28
2022-10-04T19:30:30.660Z,3.72
2022-10-04T19:35:53.660Z,2.80
2022-10-04T19:41:16.694Z,3.92
2022-10-04T19:46:24.312Z,3.67
2022-10-04T19:51:43.525Z,3.72
2022-10-04T19:56:53.857Z,3.30
2022-10-04T20:01:55.753Z,3.47
2022-10-04T20:06:59.254Z,3.33
2022-10-04T20:12:01.260Z,2.97
2022-10-04T20:17:04.446Z,3.72
2022-10-04T20:22:08.760Z,3.85
2022-10-04T20:27:25.560Z,3.67
2022-10-04T20:32:27.096Z,4.07
2022-10-04T20:37:43.810Z,3.47
2022-10-04T20:43:14.380Z,3.55
2022-10-04T20:48:22.093Z,3.58
2022-10-04T20:53:31.598Z,3.85
2022-10-04T20:58:34.622Z,3.97
2022-10-04T21:03:36.145Z,4.68
2022-10-04T21:08:38.799Z,4.90
2022-10-04T21:13:55.458Z,4.40
2022-10-04T21:19:32.031Z,4.32
2022-10-04T21:24:54.355Z,4.40
2022-10-04T21:29:56.750Z,5.93
2022-10-04T21:34:58.296Z,5.40
2022-10-04T21:39:59.963Z,5.38
2022-10-04T21:45:01.574Z,4.57
2022-10-04T21:50:03.253Z,5.68
2022-10-04T21:55:05.214Z,5.40
2022-10-04T22:00:07.516Z,4.75
2022-10-04T22:05:13.901Z,4.72
2022-10-04T22:10:15.546Z,5.65
2022-10-04T22:15:17.136Z,4.63
2022-10-04T22:20:18.673Z,6.13
2022-10-04T22:25:23.053Z,5.53
2022-10-04T22:30:29.769Z,5.50
2022-10-04T22:35:31.462Z,5.53
2022-10-04T22:40:33.159Z,6.18
2022-10-04T22:45:34.759Z,5.95
2022-10-04T22:50:37.338Z,6.38
2022-10-04T22:55:40.514Z,6.85
2022-10-04T23:00:43.439Z,6.68
2022-10-04T23:05:44.958Z,6.60
2022-10-04T23:10:46.573Z,6.70
2022-10-04T23:15:48.151Z,8.00
2022-10-04T23:20:55.577Z,6.97
2022-10-04T23:25:57.216Z,8.02
2022-10-04T23:31:04.971Z,7.75
2022-10-04T23:36:13.831Z,7.63
2022-10-04T23:41:18.001Z,8.07
2022-10-04T23:46:23.385Z,7.20
2022-10-04T23:51:25.006Z,8.77
2022-10-04T23:56:29.232Z,8.48
